Meteo Giornale » Osservazioni meteo Italia » Ronchi Dei Legionari

ore: 16:50 - Osservazioni Meteo Ronchi Dei Legionari
Lat. 45° 49' N Lon. 13° 29' E Alt. 12 metri s.l.m.

poco_nuvoloso Europe/Rome

12 °C

Poco Nuvoloso

Temp. 24 Ore

3 °C

14 °C

Ovest/Sud-Ovest

9.3 Km/h

Dew point 7 °C

Umidità 71 %

Visibilità  10 Km

Il sole sorge alle ore 07:00

Il sole tramonta alle ore 17:39

Data e Ora Cielo e Fenomeni T °C DP °C Um. % Pres. hPa Vis. km Vento km/h
Oggi h: 16:50 poco_nuvoloso Poco Nuvoloso 12 7 71 1017 10 O/SO 9.3
Oggi h: 16:20 sereno Sereno 13 7 66 1016 10 SO 13
Oggi h: 15:50 sereno Sereno 13 5 58 1016 10 SO 13
Oggi h: 14:50 sereno Sereno 14 4 50 1017 10 S 11.1
Oggi h: 14:20 sereno Sereno 14 2 44 1017 10 S 7.4
Oggi h: 13:20 sereno Sereno 14 2 44 1018 10 N 7.4
Oggi h: 12:50 sereno Sereno 14 2 44 1018 10 E/SE 13
Oggi h: 12:20 poco_nuvoloso Poco Nuvoloso 14 1 41 1019 10 SE 9.3
Oggi h: 11:50 poco_nuvoloso Poco Nuvoloso 14 2 44 1020 10 E/SE 14.8
Oggi h: 11:20 poco_nuvoloso Poco Nuvoloso 14 2 44 1020 10 E/SE 16.7
Oggi h: 10:50 nuvoloso Nuvoloso 14 2 44 1020 10 E/SE 18.5
Oggi h: 10:20 nuvoloso Nuvoloso 13 2 47 1020 10 E 16.7
Oggi h: 09:50 nuvoloso Nuvoloso 12 3 54 1021 10 E 16.7
Oggi h: 09:20 nuvoloso Nuvoloso 12 3 54 1021 10 E 13
Oggi h: 08:50 nuvoloso Nuvoloso 11 4 61 1021 10 E 11.1
Oggi h: 08:20 poco_nuvoloso Poco Nuvoloso 9 3 66 1021 10 E 11.1
Oggi h: 07:50 poco_nuvoloso Poco Nuvoloso 4 2 86 1021 10 N 1.8
Oggi h: 07:20 poco_nuvoloso Poco Nuvoloso 5 2 80 1021 10 N 3.7
Oggi h: 06:50 sereno Sereno 4 2 86 1021 10 N 1.8
Oggi h: 06:20 sereno Sereno 5 2 80 1021 10 N 1.8
Oggi h: 05:50 poco_nuvoloso Poco Nuvoloso 4 1 80 1021 10 N 3.7
Oggi h: 05:20 poco_nuvoloso Poco Nuvoloso 6 3 81 1021 10 N 7.4
Oggi h: 04:50 poco_nuvoloso Poco Nuvoloso 5 3 86 1021 10 N 7.4
Oggi h: 04:20 sereno Sereno 6 3 81 1021 10 N 7.4
Oggi h: 03:50 sereno Sereno 5 2 80 1021 10 N 7.4
Oggi h: 03:20 sereno Sereno 5 3 86 1022 10 N 5.5
Oggi h: 02:50 sereno Sereno 4 1 80 1022 10 N 5.5
Oggi h: 02:20 sereno Sereno 3 3 100 1022 10 N 5.5
Oggi h: 01:50 sereno Sereno 5 3 86 1023 10 N 3.7
Oggi h: 01:20 sereno Sereno 5 3 86 1023 10 N/NE 9.3
Oggi h: 00:50 sereno Sereno 5 4 93 1023 10 N/NO 7.4
Oggi h: 00:20 sereno Sereno 5 4 93 1023 10 N 5.5
Ieri h: 23:50 sereno Sereno 6 5 93 1023 10 N 3.7
Ieri h: 23:20 sereno Sereno 6 5 93 1024 10 N 9.3
Ieri h: 22:20 sereno Sereno 6 4 86 1024 10 N 5.5
Ieri h: 21:50 sereno Sereno 7 5 87 1024 10 N/NE 9.3
Ieri h: 21:20 sereno Sereno 6 6 100 1024 10 N 3.7
Ieri h: 20:20 nebbia Banco di Nebbia 6 6 100 1024 7 N 3.7
Ieri h: 19:50 nebbia Nebbia a Strati 7 7 100 1024 8 N 3.7
Ieri h: 19:20 sereno Sereno 8 8 100 1024 9 N 5.5
Ieri h: 18:50 sereno Sereno 9 9 100 1024 10 N 3.7
Ieri h: 18:20 sereno Sereno 11 10 93 1023 10 N 1.8
Ieri h: 17:50 sereno Sereno 11 10 93 1023 10 N 3.7